Have a Safe July 4th! 

Flight Track Log - Related Links

Times and Time Zones

All times are in EDT time to prevent confusion due to time zone crossing. See the AMX203 flight status page for this flight to view local times or setup timezone preferences in your user account.

Time Position Orientation Groundspeed Altitude Reporting Facility
EDT Latitude Longitude Course Direction KTS MPH feet Rate Location/Type
Sun 08:12:00 PM 19.7448 -99.2799 146° Southeast  Level Estimated
Sun 08:13:00 PM 19.7407 -99.2771 148° Southeast  Level Estimated
Sun 08:14:00 PM 19.7367 -99.2744 148° Southeast  Level Estimated
Sun 08:15:00 PM 19.7326 -99.2716 148° Southeast  Level Estimated
Sun 08:16:00 PM 19.7285 -99.2689 148° Southeast  Level Estimated
Sun 08:17:00 PM 19.7244 -99.2661 148° Southeast  Level Estimated
Sun 08:18:00 PM 19.7204 -99.2634 148° Southeast  Level Estimated
Sun 08:19:00 PM 19.7163 -99.2606 148° Southeast  Level Estimated
Sun 08:20:00 PM 19.7122 -99.2579 148° Southeast  Level Estimated
Sun 08:21:00 PM 19.7082 -99.2551 148° Southeast  Level Estimated
Sun 08:22:00 PM 19.7041 -99.2524 148° Southeast  Level Estimated
Sun 08:23:00 PM 19.7000 -99.2496 148° Southeast  Level Estimated
Sun 08:24:00 PM 19.6959 -99.2469 148° Southeast  Level Estimated
Sun 08:25:00 PM 19.6919 -99.2441 148° Southeast  Level Estimated
Sun 08:26:00 PM 19.6878 -99.2414 148° Southeast  Level Estimated
Sun 08:27:00 PM 19.6837 -99.2386 148° Southeast  Level Estimated
Sun 08:28:00 PM 19.6797 -99.2359 148° Southeast  Level Estimated
Sun 08:29:00 PM 19.6756 -99.2331 148° Southeast  Level Estimated
Sun 08:30:00 PM 19.6715 -99.2304 148° Southeast  Level Estimated
Sun 08:31:00 PM 19.6675 -99.2277 148° Southeast  Level Estimated
Sun 08:32:00 PM 19.6634 -99.2249 148° Southeast  Level Estimated
Sun 08:33:00 PM 19.6593 -99.2222 148° Southeast  Level Estimated
Sun 08:34:00 PM 19.6553 -99.2195 148° Southeast  Level Estimated
Sun 08:35:00 PM 19.6512 -99.2167 148° Southeast  Level Estimated
Sun 08:36:00 PM 19.6471 -99.2140 148° Southeast  Level Estimated
Sun 08:37:00 PM 19.6430 -99.2112 148° Southeast  Level Estimated
Sun 08:38:00 PM 19.6390 -99.2085 148° Southeast  Level Estimated
Sun 08:39:00 PM 19.6349 -99.2057 148° Southeast  Level Estimated
Sun 08:40:00 PM 19.6308 -99.2030 148° Southeast  Level Estimated
Sun 08:41:00 PM 19.6268 -99.2003 148° Southeast  Level Estimated
Sun 08:42:00 PM 19.6227 -99.1975 148° Southeast  Level Estimated
Sun 08:43:00 PM 19.6186 -99.1948 148° Southeast  Level Estimated
Sun 08:44:00 PM 19.6145 -99.1920 148° Southeast  Level Estimated
Sun 08:45:00 PM 19.6105 -99.1893 148° Southeast  Level Estimated
Sun 08:46:00 PM 19.6064 -99.1866 148° Southeast  Level Estimated
Sun 08:47:00 PM 19.6023 -99.1838 148° Southeast  Level Estimated
Sun 08:48:00 PM 19.5983 -99.1811 148° Southeast  Level Estimated
Sun 08:49:00 PM 19.5942 -99.1784 148° Southeast  Level Estimated
Sun 08:50:00 PM 19.5901 -99.1756 148° Southeast  Level Estimated
Sun 08:51:00 PM 19.5861 -99.1729 148° Southeast  Level Estimated
Sun 08:52:00 PM 19.5820 -99.1701 148° Southeast  Level Estimated
Sun 08:53:00 PM 19.5779 -99.1674 148° Southeast  Level Estimated
Sun 08:54:00 PM 19.5739 -99.1646 148° Southeast  Level Estimated
Sun 08:55:00 PM 19.5698 -99.1619 148° Southeast  Level Estimated
Sun 08:56:00 PM 19.5657 -99.1592 148° Southeast  Level Estimated
Sun 08:57:00 PM 19.5616 -99.1564 148° Southeast  Level Estimated
Sun 08:58:00 PM 19.5576 -99.1537 148° Southeast  Level Estimated
Sun 08:59:00 PM 19.5535 -99.1509 148° Southeast  Level Estimated
Sun 09:00:00 PM 19.5494 -99.1482 148° Southeast  Level Estimated
Sun 09:01:00 PM 19.5454 -99.1455 148° Southeast  Level Estimated
Sun 09:02:00 PM 19.5413 -99.1427 148° Southeast  Level Estimated
Sun 09:03:00 PM 19.5372 -99.1400 148° Southeast  Level Estimated
Sun 09:04:00 PM 19.5331 -99.1373 148° Southeast  Level Estimated
Sun 09:05:00 PM 19.5291 -99.1345 148° Southeast  Level Estimated
Sun 09:06:00 PM 19.5250 -99.1318 148° Southeast  Level Estimated
Sun 09:07:00 PM 19.5209 -99.1290 148° Southeast  Level Estimated
Sun 09:08:00 PM 19.5169 -99.1263 148° Southeast  Level Estimated
Sun 09:09:00 PM 19.5128 -99.1236 148° Southeast  Level Estimated
Sun 09:10:00 PM 19.5087 -99.1208 148° Southeast  Level Estimated
Sun 09:11:00 PM 19.5047 -99.1181 148° Southeast  Level Estimated
Sun 09:12:00 PM 19.5006 -99.1153 148° Southeast  Level Estimated
Sun 09:13:00 PM 19.4965 -99.1126 148° Southeast  Level Estimated
Sun 09:14:00 PM 19.4925 -99.1098 148° Southeast  Level Estimated
Sun 09:15:00 PM 19.4884 -99.1071 148° Southeast  Level Estimated
Sun 09:16:00 PM 19.4843 -99.1044 148° Southeast  Level Estimated
Sun 09:17:00 PM 19.4802 -99.1016 148° Southeast  Level Estimated
Sun 09:18:00 PM 19.4762 -99.0989 148° Southeast  Level Estimated
Sun 09:19:00 PM 19.4721 -99.0962 148° Southeast  Level Estimated
Sun 09:20:00 PM 19.4680 -99.0934 148° Southeast  Level Estimated
Sun 09:21:00 PM 19.4640 -99.0907 148° Southeast  Level Estimated
Sun 09:22:00 PM 19.4599 -99.0879 148° Southeast  Level Estimated
Sun 09:23:00 PM 19.4558 -99.0852 148° Southeast  Level Estimated
Sun 09:24:00 PM 19.4517 -99.0825 148° Southeast  Level Estimated
Sun 09:25:00 PM 19.4477 -99.0797 148° Southeast  Level Estimated
Sun 09:26:00 PM 19.4436 -99.0770 148° Southeast  Level Estimated
Sun 09:27:00 PM 19.4395 -99.0742 148° Southeast  Level Estimated
Sun 09:28:00 PM 19.4363 -99.0721 148° Southeast  Level Estimated
Sun 09:29:00 PM 19.4363 -99.0721 43° Northeast  Level Estimated
Sun 09:30:00 PM 19.4363 -99.0721 43° Northeast  Level Estimated
Sun 09:31:00 PM 19.4363 -99.0721 43° Northeast  Level Estimated
Sun 09:32:00 PM 19.4363 -99.0721 43° Northeast  Level Estimated
Sun 09:33:00 PM 19.4363 -99.0721 43° Northeast  Level Estimated
Sun 09:34:00 PM 19.4363 -99.0721 43° Northeast  Level Estimated
Sun 09:35:00 PM 19.4363 -99.0721 43° Northeast  Level Estimated
Sun 09:36:00 PM 19.4363 -99.0721 43° Northeast  Level Estimated
Sun 09:37:00 PM 19.4363 -99.0721 43° Northeast  Level Estimated
Sun 09:38:00 PM 19.4363 -99.0721 43° Northeast  Level Estimated
Sun 09:39:00 PM 19.4363 -99.0721 43° Northeast  Level Estimated
Sun 09:40:00 PM 19.4363 -99.0721 43° Northeast  Level Estimated
Sun 09:41:00 PM 19.4363 -99.0721 43° Northeast  Level Estimated
Sun 09:42:00 PM 19.4363 -99.0721 43° Northeast  Level Estimated
Sun 09:43:00 PM 19.4363 -99.0721 43° Northeast  Level Estimated
Sun 09:44:00 PM 19.4363 -99.0721 43° Northeast  Level Estimated
Sun 09:45:00 PM 19.4363 -99.0721 43° Northeast  Level Estimated

Login

Don't have an account? Register now (free) for customized features, flight alerts, and more!